createdAt,value
2023-02-22T00:02:11.414Z,15.47
2023-02-22T00:04:42.507Z,13.53
2023-02-22T00:07:09.750Z,12.03
2023-02-22T00:09:37.218Z,18.30
2023-02-22T00:12:04.595Z,16.63
2023-02-22T00:14:31.719Z,13.93
2023-02-22T00:17:02.671Z,11.73
2023-02-22T00:19:31.328Z,12.23
2023-02-22T00:21:59.629Z,12.60
2023-02-22T00:24:26.889Z,18.90
2023-02-22T00:26:58.749Z,14.20
2023-02-22T00:29:26.499Z,14.23
2023-02-22T00:31:54.394Z,19.43
2023-02-22T00:34:23.595Z,14.10
2023-02-22T00:36:51.324Z,17.63
2023-02-22T00:39:18.830Z,12.37
2023-02-22T00:41:46.503Z,19.43
2023-02-22T00:44:13.790Z,18.57
2023-02-22T00:46:40.962Z,13.27
2023-02-22T00:49:08.153Z,15.00
2023-02-22T00:51:35.457Z,12.67
2023-02-22T00:54:02.832Z,14.30
2023-02-22T00:56:30.091Z,14.20
2023-02-22T00:58:57.522Z,15.47
2023-02-22T01:01:24.877Z,17.60
2023-02-22T01:03:52.828Z,17.03
2023-02-22T01:06:20.492Z,17.10
2023-02-22T01:08:48.810Z,14.03
2023-02-22T01:11:17.836Z,13.47
2023-02-22T01:13:47.997Z,15.27
2023-02-22T01:16:15.524Z,14.67
2023-02-22T01:18:42.883Z,21.23
2023-02-22T01:21:10.197Z,13.97
2023-02-22T01:23:37.510Z,23.57
2023-02-22T01:26:06.220Z,25.13
2023-02-22T01:28:34.787Z,17.33
2023-02-22T01:31:03.283Z,18.23
2023-02-22T01:33:31.172Z,23.67
2023-02-22T01:36:00.612Z,21.50
2023-02-22T01:38:27.967Z,23.67
2023-02-22T01:40:55.319Z,18.77
2023-02-22T01:43:24.966Z,17.40
2023-02-22T01:46:07.124Z,19.33
2023-02-22T01:48:56.675Z,11.80
2023-02-22T01:51:38.329Z,18.00
2023-02-22T01:54:20.302Z,25.07
2023-02-22T01:57:03.532Z,21.37
2023-02-22T01:59:37.990Z,10.43
2023-02-22T02:02:05.929Z,16.93
2023-02-22T02:04:34.704Z,16.37
2023-02-22T02:07:07.488Z,12.80
2023-02-22T02:09:58.109Z,13.77
2023-02-22T02:12:26.481Z,13.97
2023-02-22T02:14:54.434Z,16.53
2023-02-22T02:17:23.536Z,19.07
2023-02-22T02:20:18.111Z,21.83
2023-02-22T02:22:48.502Z,21.87
2023-02-22T02:25:46.423Z,17.40
2023-02-22T02:28:43.821Z,22.40
2023-02-22T02:31:44.325Z,15.53
2023-02-22T02:34:30.331Z,19.93
2023-02-22T02:37:17.632Z,23.13
2023-02-22T02:39:57.451Z,21.90
2023-02-22T02:42:35.613Z,22.20
2023-02-22T02:45:17.896Z,15.77
2023-02-22T02:47:56.947Z,15.07
2023-02-22T02:50:31.948Z,19.40
2023-02-22T02:53:02.725Z,20.30
2023-02-22T02:55:31.921Z,13.40
2023-02-22T02:58:00.616Z,17.00
2023-02-22T03:00:39.455Z,16.23
2023-02-22T03:03:28.275Z,24.00
2023-02-22T03:06:45.865Z,29.63
2023-02-22T03:09:34.686Z,29.83
2023-02-22T03:12:17.857Z,30.07
2023-02-22T03:14:51.041Z,24.60
2023-02-22T03:17:30.222Z,27.80
2023-02-22T03:20:39.906Z,26.40
2023-02-22T03:23:54.687Z,30.20
2023-02-22T03:26:27.241Z,28.93
2023-02-22T03:28:56.540Z,29.57
2023-02-22T03:31:29.560Z,29.13
2023-02-22T03:34:14.515Z,26.10
2023-02-22T03:36:52.842Z,28.20
2023-02-22T03:39:20.997Z,29.43
2023-02-22T03:41:51.865Z,22.87
2023-02-22T03:44:24.921Z,24.17
2023-02-22T03:46:57.109Z,18.40
2023-02-22T03:49:30.074Z,22.07
2023-02-22T03:51:58.177Z,19.10
2023-02-22T03:54:25.579Z,20.93
2023-02-22T03:57:11.038Z,27.37
2023-02-22T03:59:38.899Z,26.57
2023-02-22T04:02:06.136Z,41.73
2023-02-22T04:04:33.551Z,37.30
2023-02-22T04:09:45.594Z,29.10
2023-02-22T04:12:13.248Z,17.47
2023-02-22T04:14:41.337Z,27.47
2023-02-22T04:17:08.897Z,35.37
2023-02-22T04:19:36.292Z,25.17
2023-02-22T04:22:05.235Z,23.10
2023-02-22T04:24:32.510Z,24.23
2023-02-22T04:26:59.682Z,20.70
2023-02-22T04:29:27.086Z,20.67
2023-02-22T04:31:54.282Z,26.00
2023-02-22T04:34:23.729Z,20.30
2023-02-22T04:36:51.292Z,24.37
2023-02-22T04:39:21.753Z,24.37
2023-02-22T04:41:49.064Z,28.30
2023-02-22T04:44:16.235Z,28.37
2023-02-22T04:46:43.542Z,33.40
2023-02-22T04:49:10.716Z,26.93
2023-02-22T04:51:37.872Z,27.83
2023-02-22T04:54:05.144Z,20.07
2023-02-22T04:56:32.654Z,22.07
2023-02-22T04:59:00.107Z,18.70
2023-02-22T05:01:34.021Z,16.93
2023-02-22T05:04:03.617Z,16.57
2023-02-22T05:06:31.072Z,16.40
2023-02-22T05:08:59.828Z,20.70
2023-02-22T05:11:27.002Z,19.73
2023-02-22T05:13:54.167Z,25.27
2023-02-22T05:16:21.952Z,19.57
2023-02-22T05:18:49.313Z,17.97
2023-02-22T05:21:16.727Z,18.23
2023-02-22T05:23:44.180Z,17.77
2023-02-22T05:26:11.785Z,18.80
2023-02-22T05:28:39.202Z,18.43
2023-02-22T05:31:07.770Z,22.23
2023-02-22T05:33:35.227Z,26.40
2023-02-22T05:36:02.670Z,24.97
2023-02-22T05:38:30.152Z,27.70
2023-02-22T05:40:57.966Z,33.53
2023-02-22T05:43:25.412Z,53.60
2023-02-22T05:45:52.649Z,31.23
2023-02-22T05:48:22.307Z,40.57
2023-02-22T05:50:50.385Z,40.80
2023-02-22T05:53:17.937Z,38.17
2023-02-22T05:55:46.443Z,34.47
2023-02-22T05:58:14.020Z,42.23
2023-02-22T06:00:41.232Z,67.93
2023-02-22T06:03:10.076Z,78.30
2023-02-22T06:05:38.015Z,81.03
2023-02-22T06:08:06.987Z,217.17
2023-02-22T06:10:34.406Z,241.63
2023-02-22T06:13:02.902Z,136.20
2023-02-22T06:15:31.190Z,70.83
2023-02-22T06:17:59.340Z,48.83
2023-02-22T06:20:28.632Z,56.47
2023-02-22T06:22:57.957Z,53.50
2023-02-22T06:25:28.514Z,68.47
2023-02-22T06:27:55.798Z,65.40
2023-02-22T06:30:25.538Z,63.67
2023-02-22T06:32:54.051Z,122.70
2023-02-22T06:35:22.749Z,92.57
2023-02-22T06:37:49.868Z,53.00
2023-02-22T06:40:17.297Z,55.37
2023-02-22T06:42:44.777Z,116.97
2023-02-22T06:45:12.152Z,119.50
2023-02-22T06:47:42.098Z,135.27
2023-02-22T06:50:26.038Z,132.93
2023-02-22T06:52:55.007Z,123.63
2023-02-22T06:55:25.465Z,91.23
2023-02-22T06:57:53.200Z,82.40
2023-02-22T07:00:22.499Z,69.27
2023-02-22T07:02:49.950Z,66.73
2023-02-22T07:05:19.144Z,54.70
2023-02-22T07:07:47.627Z,57.20
2023-02-22T07:10:26.854Z,74.57
2023-02-22T07:12:54.985Z,74.33
2023-02-22T07:15:24.203Z,138.90
2023-02-22T07:17:52.667Z,271.13
2023-02-22T07:20:21.335Z,200.97
2023-02-22T07:22:52.776Z,132.33
2023-02-22T07:25:21.309Z,94.03
2023-02-22T07:27:49.011Z,70.70
2023-02-22T07:30:30.971Z,67.93
2023-02-22T07:33:01.158Z,72.50
2023-02-22T07:35:39.332Z,66.00
2023-02-22T07:38:11.157Z,49.30
2023-02-22T07:40:39.388Z,39.67
2023-02-22T07:43:24.518Z,45.23
2023-02-22T07:45:53.566Z,27.67
2023-02-22T07:48:24.501Z,22.53
2023-02-22T07:50:54.295Z,24.60
2023-02-22T07:53:31.221Z,19.30
2023-02-22T07:56:00.380Z,19.80
2023-02-22T07:58:31.316Z,22.57
2023-02-22T08:00:59.226Z,23.73
2023-02-22T08:03:27.718Z,24.90
2023-02-22T08:05:57.522Z,19.80
2023-02-22T08:08:25.081Z,17.10
2023-02-22T08:10:53.260Z,21.40
2023-02-22T08:13:22.357Z,24.30
2023-02-22T08:15:52.179Z,19.63
2023-02-22T08:18:20.275Z,19.70
2023-02-22T08:20:49.148Z,30.37
2023-02-22T08:23:17.932Z,23.60
2023-02-22T08:25:45.685Z,16.37
2023-02-22T08:28:16.154Z,23.50
2023-02-22T08:30:44.153Z,20.23
2023-02-22T08:33:14.729Z,13.33
2023-02-22T08:35:42.599Z,16.03
2023-02-22T08:38:21.918Z,20.23
2023-02-22T08:40:50.220Z,33.47
2023-02-22T08:43:19.147Z,28.07
2023-02-22T08:45:47.093Z,20.43
2023-02-22T08:48:15.479Z,13.63
2023-02-22T08:50:44.608Z,23.50
2023-02-22T08:53:13.872Z,27.60
2023-02-22T08:55:42.406Z,21.60
2023-02-22T08:58:10.461Z,28.63
2023-02-22T09:00:39.531Z,18.33
2023-02-22T09:03:10.218Z,23.57
2023-02-22T09:05:37.481Z,15.47
2023-02-22T09:08:05.251Z,16.67
2023-02-22T09:10:34.344Z,122.83
2023-02-22T09:13:02.690Z,37.17
2023-02-22T09:15:31.246Z,37.00
2023-02-22T09:17:59.653Z,13.17
2023-02-22T09:20:28.002Z,18.97
2023-02-22T09:22:55.631Z,13.73
2023-02-22T09:25:23.787Z,20.80
2023-02-22T09:27:53.155Z,21.43
2023-02-22T09:30:32.969Z,15.53
2023-02-22T09:33:06.169Z,20.77
2023-02-22T09:35:36.600Z,23.30
2023-02-22T09:38:06.629Z,24.70
2023-02-22T09:40:41.343Z,20.43
2023-02-22T09:43:33.396Z,27.77
2023-02-22T09:46:42.350Z,18.67
2023-02-22T09:49:32.498Z,19.87
2023-02-22T09:52:12.333Z,36.20
2023-02-22T09:54:47.256Z,36.93
2023-02-22T09:57:18.494Z,18.60
2023-02-22T09:59:58.715Z,93.63
2023-02-22T10:02:35.182Z,29.13
2023-02-22T10:05:27.900Z,28.87
2023-02-22T10:08:00.173Z,37.40
2023-02-22T10:10:34.213Z,28.80
2023-02-22T10:13:28.478Z,27.70
2023-02-22T10:16:11.411Z,23.07
2023-02-22T10:18:55.312Z,21.03
2023-02-22T10:21:45.539Z,36.60
2023-02-22T10:24:42.150Z,26.27
2023-02-22T10:27:22.406Z,24.17
2023-02-22T10:29:59.833Z,25.50
2023-02-22T10:32:35.871Z,75.60
2023-02-22T10:35:14.190Z,26.70
2023-02-22T10:37:41.744Z,19.33
2023-02-22T10:40:17.691Z,21.90
2023-02-22T10:42:45.356Z,15.97
2023-02-22T10:45:27.204Z,20.87
2023-02-22T10:47:59.242Z,21.57
2023-02-22T10:50:30.529Z,14.67
2023-02-22T10:52:58.294Z,13.63
2023-02-22T10:55:25.513Z,20.73
2023-02-22T10:58:05.127Z,14.50
2023-02-22T11:00:40.104Z,19.80
2023-02-22T11:03:18.774Z,14.23
2023-02-22T11:05:46.502Z,17.37
2023-02-22T11:08:22.851Z,14.63
2023-02-22T11:10:56.750Z,18.73
2023-02-22T11:13:39.513Z,10.70
2023-02-22T11:16:33.266Z,13.00
2023-02-22T11:19:15.878Z,26.07
2023-02-22T11:21:43.476Z,20.93
2023-02-22T11:24:13.603Z,19.73
2023-02-22T11:26:46.805Z,15.83
2023-02-22T11:29:21.750Z,27.90
2023-02-22T11:31:50.092Z,18.27
2023-02-22T11:34:39.113Z,16.77
2023-02-22T11:37:29.857Z,16.70
2023-02-22T11:40:12.891Z,11.07
2023-02-22T11:42:40.234Z,14.53
2023-02-22T11:45:21.781Z,17.30
2023-02-22T11:47:55.024Z,14.10
2023-02-22T11:50:57.815Z,10.83
2023-02-22T11:53:33.186Z,17.07
2023-02-22T11:56:37.014Z,20.83
2023-02-22T11:59:36.926Z,14.80
2023-02-22T12:02:35.692Z,16.67
2023-02-22T12:05:19.291Z,15.53
2023-02-22T12:08:00.100Z,12.07
2023-02-22T12:10:48.327Z,15.60
2023-02-22T12:13:33.407Z,15.37
2023-02-22T12:16:03.892Z,12.83
2023-02-22T12:18:39.000Z,15.37
2023-02-22T12:21:18.827Z,19.90
2023-02-22T12:23:46.150Z,14.77
2023-02-22T12:26:43.222Z,15.27
2023-02-22T12:29:18.883Z,12.63
2023-02-22T12:31:54.003Z,11.83
2023-02-22T12:34:27.512Z,16.50
2023-02-22T12:37:18.998Z,12.23
2023-02-22T12:40:17.509Z,19.43
2023-02-22T12:43:00.449Z,14.47
2023-02-22T12:45:52.447Z,16.63
2023-02-22T12:48:26.559Z,14.50
2023-02-22T12:51:09.547Z,13.00
2023-02-22T12:53:43.206Z,14.27
2023-02-22T12:56:20.294Z,14.57
2023-02-22T12:59:03.126Z,12.67
2023-02-22T13:01:38.048Z,15.37
2023-02-22T13:04:19.494Z,21.67
2023-02-22T13:07:09.792Z,12.83
2023-02-22T13:09:46.373Z,12.43
2023-02-22T13:12:14.097Z,13.13
2023-02-22T13:15:04.156Z,25.30
2023-02-22T13:17:40.686Z,21.63
2023-02-22T13:20:42.306Z,16.13
2023-02-22T13:23:30.801Z,18.53
2023-02-22T13:26:13.521Z,12.73
2023-02-22T13:28:51.150Z,21.50
2023-02-22T13:31:36.106Z,13.57
2023-02-22T13:34:07.165Z,14.20
2023-02-22T13:37:00.368Z,22.37
2023-02-22T13:40:06.901Z,14.23
2023-02-22T13:42:56.129Z,12.13
2023-02-22T13:45:44.935Z,16.93
2023-02-22T13:48:51.261Z,12.13
2023-02-22T13:51:33.543Z,12.13
2023-02-22T13:54:09.189Z,11.63
2023-02-22T13:56:36.663Z,13.07
2023-02-22T13:59:05.511Z,11.77
2023-02-22T14:01:46.249Z,15.57
2023-02-22T14:04:30.043Z,10.10
2023-02-22T14:07:25.292Z,15.90
2023-02-22T14:09:56.240Z,6.07
2023-02-22T14:12:35.504Z,51.72
2023-02-22T14:15:26.802Z,12.63
2023-02-22T14:17:58.200Z,22.90
2023-02-22T14:20:37.164Z,29.25
2023-02-22T14:23:24.654Z,35.03
2023-02-22T14:25:52.437Z,18.17
2023-02-22T14:28:41.054Z,22.15
2023-02-22T14:31:17.426Z,10.48
2023-02-22T14:34:06.557Z,30.55
2023-02-22T14:36:51.103Z,21.98
2023-02-22T14:39:51.422Z,12.00
2023-02-22T14:42:35.449Z,9.23
2023-02-22T14:45:14.980Z,6.03
2023-02-22T14:48:04.126Z,7.80
2023-02-22T14:50:40.636Z,7.43
2023-02-22T14:53:13.716Z,7.85
2023-02-22T14:55:46.683Z,9.30
2023-02-22T14:58:19.658Z,6.68
2023-02-22T15:00:49.738Z,9.68
2023-02-22T15:03:37.754Z,9.15
2023-02-22T15:06:06.634Z,8.93
2023-02-22T15:08:34.712Z,11.70
2023-02-22T15:11:03.042Z,10.02
2023-02-22T15:13:35.370Z,8.50
2023-02-22T15:16:08.141Z,12.93
2023-02-22T15:18:42.282Z,8.93
2023-02-22T15:21:19.724Z,11.60
2023-02-22T15:23:54.034Z,14.07
2023-02-22T15:26:49.046Z,10.33
2023-02-22T15:29:38.522Z,10.63
2023-02-22T15:32:34.669Z,19.03
2023-02-22T15:35:16.835Z,15.20
2023-02-22T15:37:48.184Z,16.30
2023-02-22T15:40:21.131Z,12.37
2023-02-22T15:42:54.230Z,13.37
2023-02-22T15:45:25.618Z,10.90
2023-02-22T15:47:59.404Z,12.77
2023-02-22T15:50:35.158Z,13.03
2023-02-22T15:53:21.801Z,11.40
2023-02-22T15:55:55.205Z,8.43
2023-02-22T15:58:28.903Z,10.83
2023-02-22T16:01:01.447Z,15.97
2023-02-22T16:03:45.155Z,16.00
2023-02-22T16:06:24.898Z,13.77
2023-02-22T16:08:55.591Z,11.40
2023-02-22T16:11:35.456Z,16.37
2023-02-22T16:14:09.117Z,19.33
2023-02-22T16:16:41.934Z,18.47
2023-02-22T16:19:28.947Z,31.80
2023-02-22T16:22:05.751Z,30.67
2023-02-22T16:24:36.133Z,27.20
2023-02-22T16:27:25.668Z,27.53
2023-02-22T16:30:24.857Z,28.43
2023-02-22T16:32:57.363Z,28.13
2023-02-22T16:35:29.619Z,24.83
2023-02-22T16:38:01.186Z,21.20
2023-02-22T16:40:32.763Z,30.37
2023-02-22T16:43:02.860Z,23.67
2023-02-22T16:45:30.332Z,18.30
2023-02-22T16:47:59.377Z,11.20
2023-02-22T16:50:26.885Z,22.07
2023-02-22T16:52:55.873Z,17.97
2023-02-22T16:55:25.000Z,18.93
2023-02-22T16:58:01.235Z,27.00
2023-02-22T17:00:32.000Z,29.30
2023-02-22T17:03:04.110Z,22.23
2023-02-22T17:05:36.774Z,21.27
2023-02-22T17:08:04.887Z,28.00
2023-02-22T17:10:32.585Z,36.63
2023-02-22T17:13:12.710Z,34.73
2023-02-22T17:15:47.677Z,43.97
2023-02-22T17:18:25.543Z,42.13
2023-02-22T17:20:55.178Z,33.20
2023-02-22T17:23:23.627Z,38.80
2023-02-22T17:25:54.082Z,41.53
2023-02-22T17:28:23.878Z,47.10
2023-02-22T17:30:52.545Z,36.70
2023-02-22T17:33:22.939Z,28.70
2023-02-22T17:35:50.459Z,30.30
2023-02-22T17:38:20.617Z,30.27
2023-02-22T17:40:48.813Z,25.30
2023-02-22T17:43:17.353Z,37.90
2023-02-22T17:45:44.601Z,35.73
2023-02-22T17:48:12.816Z,35.67
2023-02-22T17:50:43.887Z,38.10
2023-02-22T17:53:11.640Z,42.90
2023-02-22T17:55:41.481Z,46.30
2023-02-22T17:58:15.312Z,40.80
2023-02-22T18:00:48.644Z,31.10
2023-02-22T18:03:21.871Z,101.60
2023-02-22T18:05:51.295Z,80.90
2023-02-22T18:08:19.246Z,69.87
2023-02-22T18:10:47.516Z,61.83
2023-02-22T18:13:18.275Z,59.53
2023-02-22T18:15:46.910Z,56.93
2023-02-22T18:18:15.067Z,43.13
2023-02-22T18:20:47.642Z,40.97
2023-02-22T18:23:17.532Z,59.30
2023-02-22T18:26:09.033Z,74.63
2023-02-22T18:28:37.192Z,58.33
2023-02-22T18:31:15.225Z,52.27
2023-02-22T18:33:48.266Z,44.50
2023-02-22T18:36:23.689Z,51.50
2023-02-22T18:38:53.264Z,38.53
2023-02-22T18:41:25.666Z,40.80
2023-02-22T18:43:55.854Z,120.37
2023-02-22T18:46:24.733Z,157.07
2023-02-22T18:48:56.994Z,185.67
2023-02-22T18:51:25.849Z,141.83
2023-02-22T18:54:00.767Z,54.13
2023-02-22T18:56:34.213Z,232.50
2023-02-22T18:59:03.058Z,164.67
2023-02-22T19:01:35.910Z,109.93
2023-02-22T19:04:03.307Z,139.17
2023-02-22T19:06:30.516Z,144.47
2023-02-22T19:09:01.584Z,112.97
2023-02-22T19:11:29.056Z,139.93
2023-02-22T19:13:58.622Z,178.73
2023-02-22T19:16:27.130Z,142.87
2023-02-22T19:18:58.030Z,161.00
2023-02-22T19:21:27.622Z,121.23
2023-02-22T19:23:54.850Z,175.00
2023-02-22T19:26:26.850Z,166.27
2023-02-22T19:28:56.446Z,129.93
2023-02-22T19:31:33.948Z,61.50
2023-02-22T19:34:04.191Z,44.17
2023-02-22T19:36:32.725Z,48.50
2023-02-22T19:39:02.980Z,100.57
2023-02-22T19:41:31.414Z,78.47
2023-02-22T19:44:00.834Z,109.60
2023-02-22T19:46:28.621Z,168.37
2023-02-22T19:48:56.747Z,155.40
2023-02-22T19:51:29.641Z,206.07
2023-02-22T19:53:59.266Z,161.23
2023-02-22T19:56:27.406Z,121.57
2023-02-22T19:58:57.176Z,142.23
2023-02-22T20:01:33.504Z,195.23
2023-02-22T20:04:04.258Z,242.50
2023-02-22T20:06:40.476Z,328.73
2023-02-22T20:09:09.843Z,176.03
2023-02-22T20:11:37.339Z,145.00
2023-02-22T20:14:07.194Z,127.93
2023-02-22T20:16:35.663Z,133.17
2023-02-22T20:19:03.129Z,98.70
2023-02-22T20:21:32.588Z,92.90
2023-02-22T20:24:02.664Z,75.27
2023-02-22T20:26:32.636Z,99.07
2023-02-22T20:29:01.131Z,119.27
2023-02-22T20:31:29.878Z,73.50
2023-02-22T20:34:00.264Z,82.47
2023-02-22T20:36:29.960Z,102.53
2023-02-22T20:39:00.300Z,77.43
2023-02-22T20:41:35.008Z,96.13
2023-02-22T20:44:03.833Z,84.53
2023-02-22T20:46:32.173Z,76.20
2023-02-22T20:49:01.388Z,84.00
2023-02-22T20:51:29.563Z,61.73
2023-02-22T20:54:01.611Z,53.50
2023-02-22T20:56:31.065Z,59.47
2023-02-22T20:59:01.090Z,71.43
2023-02-22T21:01:29.277Z,78.03
2023-02-22T21:04:03.731Z,72.10
2023-02-22T21:06:31.775Z,54.63
2023-02-22T21:09:01.402Z,57.60
2023-02-22T21:11:31.723Z,57.30
2023-02-22T21:14:00.929Z,70.50
2023-02-22T21:16:35.992Z,83.63
2023-02-22T21:19:05.943Z,78.47
2023-02-22T21:21:34.089Z,74.63
2023-02-22T21:24:01.985Z,73.10
2023-02-22T21:26:32.060Z,76.03
2023-02-22T21:29:06.279Z,85.20
2023-02-22T21:31:34.864Z,97.97
2023-02-22T21:34:02.461Z,87.80
2023-02-22T21:36:30.742Z,65.00
2023-02-22T21:39:18.392Z,65.10
2023-02-22T21:41:51.618Z,55.03
2023-02-22T21:44:20.080Z,40.60
2023-02-22T21:46:50.048Z,36.70
2023-02-22T21:49:17.989Z,46.67
2023-02-22T21:51:45.147Z,52.57
2023-02-22T21:54:13.185Z,45.93
2023-02-22T21:56:42.614Z,43.57
2023-02-22T21:59:24.068Z,52.60
2023-02-22T22:01:56.243Z,52.87
2023-02-22T22:04:27.774Z,44.23
2023-02-22T22:06:59.970Z,43.50
2023-02-22T22:09:33.371Z,44.10
2023-02-22T22:12:05.454Z,49.90
2023-02-22T22:14:33.875Z,45.60
2023-02-22T22:17:01.841Z,61.83
2023-02-22T22:19:31.377Z,49.40
2023-02-22T22:21:58.988Z,46.63
2023-02-22T22:24:29.026Z,45.00
2023-02-22T22:26:56.389Z,48.50
2023-02-22T22:29:26.758Z,43.20
2023-02-22T22:31:54.883Z,48.60
2023-02-22T22:34:24.491Z,47.27
2023-02-22T22:36:51.701Z,43.40
2023-02-22T22:39:21.344Z,42.60
2023-02-22T22:41:51.826Z,48.87
2023-02-22T22:44:22.575Z,45.33
2023-02-22T22:46:53.942Z,44.13
2023-02-22T22:49:25.561Z,44.97
2023-02-22T22:51:53.725Z,46.40
2023-02-22T22:54:21.022Z,46.13
2023-02-22T22:56:48.354Z,43.87
2023-02-22T22:59:15.747Z,47.70
2023-02-22T23:01:45.068Z,47.57
2023-02-22T23:04:16.591Z,47.70
2023-02-22T23:06:52.363Z,45.13
2023-02-22T23:09:25.313Z,55.20
2023-02-22T23:11:58.758Z,54.80
2023-02-22T23:14:31.809Z,59.03
2023-02-22T23:17:03.903Z,82.00
2023-02-22T23:19:36.107Z,94.57
2023-02-22T23:22:05.668Z,128.53
2023-02-22T23:24:36.384Z,112.73
2023-02-22T23:27:07.414Z,81.70
2023-02-22T23:29:39.990Z,107.20
2023-02-22T23:32:08.022Z,96.87
2023-02-22T23:34:36.675Z,92.77
2023-02-22T23:37:04.080Z,70.63
2023-02-22T23:39:31.175Z,75.37
2023-02-22T23:42:03.519Z,78.33
2023-02-22T23:44:31.031Z,89.63
2023-02-22T23:46:59.413Z,94.47
2023-02-22T23:49:36.043Z,97.93
2023-02-22T23:52:05.621Z,85.17
2023-02-22T23:54:36.700Z,95.43
2023-02-22T23:57:04.811Z,89.53
2023-02-22T23:59:33.754Z,77.93
